createdAt,value
2018-05-18T00:01:05.258Z,71.10
2018-05-18T00:03:33.341Z,70.90
2018-05-18T00:06:01.821Z,71.50
2018-05-18T00:08:29.920Z,72.50
2018-05-18T00:10:58.542Z,71.00
2018-05-18T00:18:24.311Z,85.60
2018-05-18T00:20:52.426Z,72.60
2018-05-18T00:23:20.885Z,73.20
2018-05-18T00:25:50.081Z,72.10
2018-05-18T00:28:18.542Z,72.20
2018-05-18T00:30:46.630Z,72.50
2018-05-18T00:33:15.105Z,72.60
2018-05-18T00:35:43.214Z,72.20
2018-05-18T00:38:12.177Z,74.80
2018-05-18T00:43:10.086Z,73.10
2018-05-18T00:45:38.545Z,73.40
2018-05-18T00:48:07.777Z,73.60
2018-05-18T00:50:36.981Z,74.50
2018-05-18T00:53:05.445Z,73.90
2018-05-18T00:55:40.563Z,74.60
2018-05-18T00:58:09.061Z,74.70
2018-05-18T01:00:38.265Z,74.60
2018-05-18T01:03:06.732Z,74.90
2018-05-18T01:05:34.826Z,74.80
2018-05-18T01:10:31.573Z,90.30
2018-05-18T01:12:59.677Z,79.90
2018-05-18T01:15:28.145Z,76.20
2018-05-18T01:17:56.244Z,76.60
2018-05-18T01:20:24.732Z,77.20
2018-05-18T01:22:52.835Z,77.70
2018-05-18T01:25:21.302Z,76.50
2018-05-18T01:27:49.754Z,76.80
2018-05-18T01:30:17.835Z,77.30
2018-05-18T01:32:46.312Z,75.50
2018-05-18T01:35:14.423Z,76.40
2018-05-18T01:37:43.629Z,77.00
2018-05-18T01:40:12.392Z,77.30
2018-05-18T01:42:41.213Z,75.80
2018-05-18T01:45:09.694Z,76.30
2018-05-18T01:47:37.812Z,77.20
2018-05-18T01:50:06.384Z,78.30
2018-05-18T01:52:34.460Z,78.50
2018-05-18T01:57:31.218Z,92.00
2018-05-18T01:59:59.308Z,78.90
2018-05-18T02:02:28.285Z,79.50
2018-05-18T02:04:57.127Z,79.50
2018-05-18T02:07:25.247Z,79.60
2018-05-18T02:09:53.712Z,79.70
2018-05-18T02:12:21.809Z,80.60
2018-05-18T02:14:50.273Z,82.40
2018-05-18T02:17:18.361Z,85.00
2018-05-18T02:19:46.838Z,83.10
2018-05-18T02:22:16.048Z,84.20
2018-05-18T02:24:45.260Z,82.60
2018-05-18T02:27:13.722Z,82.10
2018-05-18T02:29:42.930Z,81.80
2018-05-18T02:32:12.593Z,81.30
2018-05-18T02:37:09.745Z,83.40
2018-05-18T02:39:38.221Z,87.50
2018-05-18T02:42:06.787Z,83.00
2018-05-18T02:44:34.891Z,89.10
2018-05-18T02:47:02.999Z,82.80
2018-05-18T02:52:00.584Z,84.40
2018-05-18T02:59:27.661Z,82.90
2018-05-18T03:01:56.875Z,84.20
2018-05-18T03:04:26.091Z,84.20
2018-05-18T03:06:54.570Z,85.10
2018-05-18T03:09:22.672Z,83.40
2018-05-18T03:11:51.135Z,83.40
2018-05-18T03:14:19.227Z,83.80
2018-05-18T03:16:47.690Z,84.70
2018-05-18T03:19:15.787Z,84.70
2018-05-18T03:21:44.269Z,83.40
2018-05-18T03:24:12.363Z,83.30
2018-05-18T03:26:40.832Z,83.90
2018-05-18T03:29:10.029Z,83.20
2018-05-18T03:31:38.122Z,90.20
2018-05-18T03:34:06.581Z,83.60
2018-05-18T03:36:35.046Z,83.30
2018-05-18T03:39:04.269Z,83.00
2018-05-18T03:41:33.468Z,86.80
2018-05-18T03:44:01.939Z,84.70
2018-05-18T03:46:31.143Z,84.10
2018-05-18T03:49:00.352Z,83.90
2018-05-18T03:51:28.822Z,82.70
2018-05-18T03:53:57.290Z,82.30
2018-05-18T03:56:25.390Z,83.10
2018-05-18T03:58:53.877Z,82.90
2018-05-18T04:01:33.665Z,83.20
2018-05-18T04:04:14.020Z,83.00
2018-05-18T04:06:53.597Z,94.20
2018-05-18T04:09:22.803Z,82.20
2018-05-18T04:11:51.261Z,81.90
2018-05-18T04:14:19.729Z,81.00
2018-05-18T04:16:47.812Z,80.90
2018-05-18T04:19:17.054Z,80.70
2018-05-18T04:24:14.200Z,79.90
2018-05-18T04:26:41.891Z,90.70
2018-05-18T04:29:10.402Z,78.90
2018-05-18T04:31:38.501Z,78.20
2018-05-18T04:34:06.961Z,77.40
2018-05-18T04:36:35.058Z,76.90
2018-05-18T04:39:03.509Z,77.10
2018-05-18T04:41:32.009Z,76.50
2018-05-18T04:44:00.099Z,76.90
2018-05-18T04:46:29.314Z,76.40
2018-05-18T04:48:57.772Z,75.60
2018-05-18T04:51:25.877Z,75.10
2018-05-18T04:53:54.336Z,75.50
2018-05-18T04:56:22.457Z,77.60
2018-05-18T04:58:50.998Z,76.80
2018-05-18T05:01:19.090Z,76.30
2018-05-18T05:06:15.832Z,91.30
2018-05-18T05:08:43.963Z,76.80
2018-05-18T05:13:40.719Z,90.80
2018-05-18T05:16:09.961Z,78.40
2018-05-18T05:18:38.431Z,76.80
2018-05-18T05:21:06.531Z,77.70
2018-05-18T05:23:36.206Z,76.00
2018-05-18T05:26:05.045Z,76.60
2018-05-18T05:28:33.530Z,76.40
2018-05-18T05:31:01.633Z,76.20
2018-05-18T05:35:58.396Z,91.70
2018-05-18T05:38:26.475Z,76.60
2018-05-18T05:40:54.970Z,76.10
2018-05-18T05:43:23.060Z,75.90
2018-05-18T05:45:51.519Z,75.80
2018-05-18T05:48:20.006Z,76.00
2018-05-18T05:50:48.109Z,78.60
2018-05-18T05:53:17.448Z,76.90
2018-05-18T05:55:45.542Z,77.00
2018-05-18T05:58:14.013Z,75.80
2018-05-18T06:00:43.225Z,75.70
2018-05-18T06:03:11.698Z,74.20
2018-05-18T06:05:39.810Z,73.40
2018-05-18T06:10:36.597Z,88.90
2018-05-18T06:13:04.761Z,70.60
2018-05-18T06:15:33.231Z,70.20
2018-05-18T06:18:01.330Z,70.00
2018-05-18T06:20:29.841Z,69.50
2018-05-18T06:22:57.965Z,72.00
2018-05-18T06:25:27.198Z,70.10
2018-05-18T06:27:56.489Z,69.90
2018-05-18T06:30:25.693Z,70.00
2018-05-18T06:32:54.146Z,69.00
2018-05-18T06:35:22.607Z,68.50
2018-05-18T06:37:50.689Z,69.50
2018-05-18T06:40:19.174Z,68.50
2018-05-18T06:42:47.281Z,68.80
2018-05-18T06:45:16.485Z,69.20
2018-05-18T06:47:44.935Z,68.40
2018-05-18T06:50:13.406Z,67.90
2018-05-18T06:52:41.513Z,69.00
2018-05-18T06:55:10.761Z,67.90
2018-05-18T06:57:39.236Z,66.90
2018-05-18T07:00:07.338Z,66.10
2018-05-18T07:05:04.934Z,64.80
2018-05-18T07:07:33.410Z,64.10
2018-05-18T07:10:01.519Z,63.40
2018-05-18T07:12:29.983Z,63.20
2018-05-18T07:14:58.089Z,62.90
2018-05-18T07:19:54.843Z,77.70
2018-05-18T07:22:22.950Z,61.10
2018-05-18T07:24:51.451Z,60.90
2018-05-18T07:27:19.541Z,61.10
2018-05-18T07:29:48.004Z,61.20
2018-05-18T07:32:16.091Z,60.10
2018-05-18T07:34:44.570Z,60.00
2018-05-18T07:37:13.048Z,59.50
2018-05-18T07:39:41.145Z,59.80
2018-05-18T07:42:09.610Z,59.10
2018-05-18T07:44:37.774Z,59.00
2018-05-18T07:47:05.908Z,57.90
2018-05-18T07:49:34.405Z,58.50
2018-05-18T07:52:02.499Z,57.10
2018-05-18T07:54:30.957Z,57.90
2018-05-18T07:56:59.429Z,57.00
2018-05-18T07:59:27.633Z,57.40
2018-05-18T08:01:55.656Z,57.80
2018-05-18T08:04:24.117Z,58.10
2018-05-18T08:06:53.314Z,56.40
2018-05-18T08:11:50.831Z,57.80
2018-05-18T08:14:18.536Z,72.60
2018-05-18T08:16:46.631Z,56.90
2018-05-18T08:19:15.090Z,56.30
2018-05-18T08:21:43.176Z,56.70
2018-05-18T08:24:12.369Z,55.80
2018-05-18T08:26:40.066Z,70.60
2018-05-18T08:29:21.186Z,55.50
2018-05-18T08:31:49.264Z,55.60
2018-05-18T08:34:17.790Z,56.40
2018-05-18T08:36:45.882Z,56.40
2018-05-18T08:39:14.425Z,55.50
2018-05-18T08:41:42.487Z,55.40
2018-05-18T08:49:08.677Z,60.70
2018-05-18T08:51:37.269Z,54.50
2018-05-18T08:54:06.104Z,55.20
2018-05-18T08:56:35.308Z,55.20
2018-05-18T08:59:04.518Z,55.40
2018-05-18T09:01:32.199Z,69.80
2018-05-18T09:06:29.695Z,54.00
2018-05-18T09:08:57.837Z,54.10
2018-05-18T09:11:26.336Z,54.20
2018-05-18T09:13:54.433Z,53.80
2018-05-18T09:16:23.644Z,53.10
2018-05-18T09:18:52.110Z,53.40
2018-05-18T09:21:20.453Z,52.60
2018-05-18T09:23:48.542Z,53.60
2018-05-18T09:28:45.411Z,67.10
2018-05-18T09:31:13.503Z,53.00
2018-05-18T09:33:42.733Z,52.60
2018-05-18T09:36:11.198Z,52.30
2018-05-18T09:38:39.298Z,53.30
2018-05-18T09:41:07.773Z,53.40
2018-05-18T09:43:36.443Z,53.50
2018-05-18T09:46:04.197Z,60.80
2018-05-18T09:51:01.752Z,52.90
2018-05-18T09:53:29.457Z,69.30
2018-05-18T09:58:26.967Z,52.80
2018-05-18T10:00:55.052Z,53.30
2018-05-18T10:03:24.282Z,53.50
2018-05-18T10:05:52.756Z,52.50
2018-05-18T10:08:20.850Z,53.00
2018-05-18T10:10:49.318Z,52.30
2018-05-18T10:13:17.411Z,52.70
2018-05-18T10:15:45.876Z,52.20
2018-05-18T10:18:15.215Z,52.20
2018-05-18T10:20:43.316Z,51.80
2018-05-18T10:23:11.778Z,52.30
2018-05-18T10:25:39.867Z,51.10
2018-05-18T10:28:08.340Z,51.10
2018-05-18T10:30:37.534Z,52.00
2018-05-18T10:33:06.059Z,51.80
2018-05-18T10:35:34.159Z,50.70
2018-05-18T10:40:30.959Z,67.30
2018-05-18T10:42:59.045Z,50.60
2018-05-18T10:47:56.615Z,48.90
2018-05-18T10:52:54.125Z,50.50
2018-05-18T10:55:22.597Z,50.50
2018-05-18T10:57:51.089Z,51.40
2018-05-18T11:00:19.206Z,50.10
2018-05-18T11:02:47.672Z,49.60
2018-05-18T11:05:15.810Z,51.10
2018-05-18T11:07:44.258Z,50.70
2018-05-18T11:10:12.368Z,51.60
2018-05-18T11:12:41.572Z,51.20
2018-05-18T11:15:10.034Z,51.20
2018-05-18T11:17:39.111Z,54.60
2018-05-18T11:20:06.880Z,73.70
2018-05-18T11:22:35.722Z,56.10
2018-05-18T11:25:04.181Z,55.50
2018-05-18T11:27:32.662Z,54.50
2018-05-18T11:30:00.769Z,55.50
2018-05-18T11:32:29.985Z,55.10
2018-05-18T11:34:59.202Z,55.10
2018-05-18T11:37:27.693Z,55.50
2018-05-18T11:39:56.901Z,55.30
2018-05-18T11:42:26.113Z,55.30
2018-05-18T11:44:54.594Z,56.20
2018-05-18T11:47:22.692Z,56.60
2018-05-18T11:49:51.153Z,56.20
2018-05-18T11:52:20.355Z,57.00
2018-05-18T11:54:48.766Z,57.30
2018-05-18T11:57:16.852Z,57.00
2018-05-18T12:02:19.469Z,57.70
2018-05-18T12:04:47.939Z,57.90
2018-05-18T12:07:16.360Z,58.20
2018-05-18T12:09:44.491Z,58.70
2018-05-18T12:12:12.906Z,58.70
2018-05-18T12:14:40.950Z,58.90
2018-05-18T12:17:09.423Z,58.50
2018-05-18T12:19:38.469Z,58.00
2018-05-18T12:22:06.917Z,58.30
2018-05-18T12:24:36.118Z,58.70
2018-05-18T12:27:04.543Z,58.20
2018-05-18T12:29:33.723Z,58.20
2018-05-18T12:32:02.140Z,59.50
2018-05-18T12:34:31.316Z,59.00
2018-05-18T12:36:59.740Z,58.30
2018-05-18T12:39:28.928Z,58.60
2018-05-18T12:41:56.572Z,74.10
2018-05-18T12:44:24.619Z,57.90
2018-05-18T12:46:53.781Z,57.70
2018-05-18T12:49:21.443Z,73.40
2018-05-18T12:51:49.478Z,58.10
2018-05-18T12:56:46.132Z,73.40
2018-05-18T12:59:15.286Z,58.00
2018-05-18T13:01:42.958Z,74.90
2018-05-18T13:04:11.011Z,58.20
2018-05-18T13:06:39.425Z,58.30
2018-05-18T13:09:07.462Z,57.80
2018-05-18T13:11:35.142Z,73.50
2018-05-18T13:14:03.198Z,58.40
2018-05-18T13:16:32.415Z,58.00
2018-05-18T13:19:00.844Z,57.30
2018-05-18T13:21:30.008Z,58.20
2018-05-18T13:23:58.425Z,57.80
2018-05-18T13:26:27.601Z,57.50
2018-05-18T13:28:56.010Z,56.90
2018-05-18T13:31:25.170Z,58.80
2018-05-18T13:33:53.636Z,59.40
2018-05-18T13:36:22.066Z,59.80
2018-05-18T13:38:50.203Z,59.70
2018-05-18T13:41:19.306Z,60.30
2018-05-18T13:43:47.751Z,60.80
2018-05-18T13:46:16.901Z,60.50
2018-05-18T13:48:45.318Z,60.60
2018-05-18T13:53:41.959Z,75.60
2018-05-18T13:56:11.114Z,60.60
2018-05-18T13:58:39.531Z,60.10
2018-05-18T14:01:08.739Z,59.10
2018-05-18T14:03:37.289Z,58.60
2018-05-18T14:06:06.331Z,59.20
2018-05-18T14:08:34.755Z,59.30
2018-05-18T14:11:03.955Z,59.80
2018-05-18T14:13:32.376Z,60.10
2018-05-18T14:16:01.530Z,60.30
2018-05-18T14:18:29.943Z,59.40
2018-05-18T14:20:59.228Z,59.70
2018-05-18T14:23:27.603Z,59.80
2018-05-18T14:25:55.707Z,59.80
2018-05-18T14:28:23.352Z,76.30
2018-05-18T14:30:51.393Z,60.10
2018-05-18T14:33:20.551Z,60.40
2018-05-18T14:35:48.995Z,60.70
2018-05-18T14:38:17.411Z,61.40
2018-05-18T14:40:45.466Z,61.10
2018-05-18T14:43:13.977Z,60.90
2018-05-18T14:45:42.378Z,61.40
2018-05-18T14:50:39.837Z,60.70
2018-05-18T14:53:09.017Z,59.10
2018-05-18T14:58:06.766Z,62.90
2018-05-18T15:00:34.860Z,60.60
2018-05-18T15:03:03.295Z,59.60
2018-05-18T15:05:32.471Z,59.60
2018-05-18T15:08:00.876Z,58.00
2018-05-18T15:10:30.041Z,57.20
2018-05-18T15:12:58.469Z,59.50
2018-05-18T15:15:27.037Z,59.10
2018-05-18T15:17:55.115Z,59.90
2018-05-18T15:20:24.270Z,58.30
2018-05-18T15:25:20.946Z,71.90
2018-05-18T15:27:49.359Z,57.70
2018-05-18T15:30:17.408Z,58.00
2018-05-18T15:32:45.822Z,57.00
2018-05-18T15:35:15.113Z,57.70
2018-05-18T15:37:43.456Z,56.50
2018-05-18T15:40:12.622Z,56.00
2018-05-18T15:42:41.063Z,53.90
2018-05-18T15:45:10.228Z,54.80
2018-05-18T15:47:39.263Z,55.10
2018-05-18T15:50:07.675Z,52.80
2018-05-18T15:52:36.111Z,55.30
2018-05-18T15:55:04.858Z,54.00
2018-05-18T15:57:33.644Z,54.50
2018-05-18T16:00:02.062Z,54.70
2018-05-18T16:02:31.223Z,54.30
2018-05-18T16:04:59.635Z,54.90
2018-05-18T16:07:28.088Z,55.70
2018-05-18T16:09:56.239Z,55.60
2018-05-18T16:12:24.679Z,55.30
2018-05-18T16:14:52.755Z,55.10
2018-05-18T16:17:21.246Z,55.10
2018-05-18T16:19:50.392Z,55.70
2018-05-18T16:22:18.804Z,54.70
2018-05-18T16:24:47.997Z,55.60
2018-05-18T16:27:19.201Z,55.50
2018-05-18T16:29:47.632Z,56.30
2018-05-18T16:32:16.806Z,56.50
2018-05-18T16:34:45.675Z,56.70
2018-05-18T16:37:14.455Z,56.40
2018-05-18T16:39:42.923Z,55.90
2018-05-18T16:42:10.975Z,56.60
2018-05-18T16:44:39.393Z,56.20
2018-05-18T16:49:36.048Z,73.60
2018-05-18T16:52:05.192Z,54.90
2018-05-18T16:54:33.607Z,55.40
2018-05-18T16:57:02.799Z,55.50
2018-05-18T16:59:31.246Z,55.70
2018-05-18T17:02:00.389Z,56.10
2018-05-18T17:04:28.857Z,56.00
2018-05-18T17:06:58.001Z,55.70
2018-05-18T17:09:26.484Z,55.20
2018-05-18T17:11:55.634Z,55.80
2018-05-18T17:16:52.319Z,67.80
2018-05-18T17:19:21.511Z,55.60
2018-05-18T17:21:49.939Z,55.40
2018-05-18T17:24:19.096Z,55.70
2018-05-18T17:26:47.519Z,55.90
2018-05-18T17:29:16.670Z,56.10
2018-05-18T17:31:45.118Z,56.10
2018-05-18T17:34:14.293Z,55.60
2018-05-18T17:39:10.987Z,74.70
2018-05-18T17:41:40.677Z,55.40
2018-05-18T17:44:09.459Z,55.50
2018-05-18T17:46:37.867Z,55.00
2018-05-18T17:49:07.065Z,54.80
2018-05-18T17:51:35.498Z,54.60
2018-05-18T17:54:04.642Z,54.40
2018-05-18T17:56:33.050Z,54.60
2018-05-18T18:03:59.879Z,55.70
2018-05-18T18:06:28.299Z,55.80
2018-05-18T18:08:57.491Z,55.70
2018-05-18T18:13:54.152Z,77.40
2018-05-18T18:16:23.314Z,56.20
2018-05-18T18:23:49.376Z,59.40
2018-05-18T18:26:18.594Z,55.00
2018-05-18T18:31:16.083Z,55.00
2018-05-18T18:33:44.509Z,54.40
2018-05-18T18:36:13.693Z,54.90
2018-05-18T18:38:42.130Z,55.00
2018-05-18T18:41:11.324Z,54.70
2018-05-18T18:43:41.063Z,55.30
2018-05-18T18:46:09.859Z,55.50
2018-05-18T18:48:38.287Z,55.70
2018-05-18T18:51:07.457Z,56.30
2018-05-18T18:53:35.857Z,57.30
2018-05-18T19:01:02.662Z,57.90
2018-05-18T19:03:31.070Z,58.00
2018-05-18T19:06:00.259Z,59.00
2018-05-18T19:08:28.747Z,58.30
2018-05-18T19:10:57.889Z,58.40
2018-05-18T19:13:26.295Z,59.40
2018-05-18T19:15:55.451Z,59.40
2018-05-18T19:18:23.863Z,59.90
2018-05-18T19:20:53.025Z,61.30
2018-05-18T19:23:21.470Z,60.50
2018-05-18T19:25:50.634Z,60.60
2018-05-18T19:28:19.074Z,60.80
2018-05-18T19:30:48.239Z,60.60
2018-05-18T19:33:16.675Z,60.50
2018-05-18T19:35:45.089Z,62.00
2018-05-18T19:38:14.247Z,60.40
2018-05-18T19:40:43.403Z,60.40
2018-05-18T19:43:11.814Z,60.00
2018-05-18T19:45:41.598Z,61.00
2018-05-18T19:48:10.386Z,60.80
2018-05-18T19:53:07.044Z,80.20
2018-05-18T19:55:36.345Z,62.10
2018-05-18T20:03:03.147Z,63.40
2018-05-18T20:05:31.565Z,63.40
2018-05-18T20:08:00.753Z,63.50
2018-05-18T20:12:57.418Z,82.10
2018-05-18T20:15:26.582Z,63.90
2018-05-18T20:17:54.241Z,83.00
2018-05-18T20:22:53.077Z,64.50
2018-05-18T20:30:24.359Z,78.10
2018-05-18T20:32:52.779Z,64.20
2018-05-18T20:35:21.928Z,64.00
2018-05-18T20:37:57.491Z,65.30
2018-05-18T20:40:25.557Z,65.40
2018-05-18T20:42:53.989Z,68.80
2018-05-18T20:45:23.230Z,66.10
2018-05-18T20:47:51.647Z,68.70
2018-05-18T20:50:20.812Z,67.70
2018-05-18T20:52:49.303Z,69.90
2018-05-18T20:55:17.362Z,69.70
2018-05-18T20:57:45.780Z,72.50
2018-05-18T21:00:14.972Z,73.10
2018-05-18T21:02:43.383Z,73.00
2018-05-18T21:05:12.530Z,73.90
2018-05-18T21:07:41.318Z,73.90
2018-05-18T21:10:10.112Z,74.50
2018-05-18T21:12:38.526Z,75.90
2018-05-18T21:15:06.957Z,72.80
2018-05-18T21:17:35.014Z,72.40
2018-05-18T21:22:31.674Z,90.30
2018-05-18T21:25:00.095Z,73.00
2018-05-18T21:27:29.278Z,75.30
2018-05-18T21:29:58.527Z,76.80
2018-05-18T21:32:26.952Z,72.50
2018-05-18T21:34:56.096Z,74.20
2018-05-18T21:37:24.507Z,74.70
2018-05-18T21:39:53.681Z,73.30
2018-05-18T21:42:22.127Z,74.20
2018-05-18T21:44:51.295Z,74.30
2018-05-18T21:47:19.726Z,73.70
2018-05-18T21:49:48.928Z,73.40
2018-05-18T21:52:17.350Z,73.80
2018-05-18T21:54:46.498Z,77.20
2018-05-18T21:57:14.911Z,72.80
2018-05-18T21:59:44.071Z,76.80
2018-05-18T22:02:12.487Z,75.50
2018-05-18T22:04:41.725Z,74.80
2018-05-18T22:07:10.207Z,74.70
2018-05-18T22:09:38.311Z,72.90
2018-05-18T22:12:06.774Z,73.20
2018-05-18T22:14:35.982Z,73.30
2018-05-18T22:17:05.193Z,73.60
2018-05-18T22:19:33.657Z,72.10
2018-05-18T22:22:02.863Z,71.70
2018-05-18T22:24:32.070Z,73.20
2018-05-18T22:27:00.525Z,72.90
2018-05-18T22:29:29.733Z,73.40
2018-05-18T22:34:26.485Z,90.50
2018-05-18T22:36:54.564Z,71.70
2018-05-18T22:39:23.052Z,71.70
2018-05-18T22:41:51.153Z,72.20
2018-05-18T22:44:19.613Z,71.00
2018-05-18T22:46:48.817Z,71.20
2018-05-18T22:51:47.474Z,71.30
2018-05-18T22:54:17.402Z,71.20
2018-05-18T22:56:45.191Z,90.00
2018-05-18T22:59:13.280Z,71.50
2018-05-18T23:04:10.906Z,70.60
2018-05-18T23:09:08.419Z,70.70
2018-05-18T23:11:36.885Z,70.30
2018-05-18T23:14:06.083Z,71.30
2018-05-18T23:21:31.878Z,82.00
2018-05-18T23:24:00.354Z,69.80
2018-05-18T23:26:29.552Z,69.90
2018-05-18T23:33:56.449Z,71.00
2018-05-18T23:38:53.972Z,71.70
2018-05-18T23:41:22.440Z,71.10
2018-05-18T23:43:51.632Z,71.60
2018-05-18T23:51:17.456Z,86.30
2018-05-18T23:53:45.917Z,71.70
2018-05-18T23:56:15.114Z,72.20
